sensor_id;sensor_type;location;lat;lon;timestamp;P1;durP1;ratioP1;P2;durP2;ratioP2
62927;SDS011;51070;52.236;-0.892;2023-09-08T00:00:52;8.50;;;6.90;;
62927;SDS011;51070;52.236;-0.892;2023-09-08T00:03:17;7.80;;;7.10;;
62927;SDS011;51070;52.236;-0.892;2023-09-08T00:05:42;11.60;;;6.90;;
62927;SDS011;51070;52.236;-0.892;2023-09-08T00:08:08;9.70;;;8.00;;
62927;SDS011;51070;52.236;-0.892;2023-09-08T00:10:33;11.30;;;7.50;;
62927;SDS011;51070;52.236;-0.892;2023-09-08T00:12:58;8.30;;;7.30;;
62927;SDS011;51070;52.236;-0.892;2023-09-08T00:15:24;8.30;;;7.40;;
62927;SDS011;51070;52.236;-0.892;2023-09-08T00:17:49;8.60;;;7.10;;
62927;SDS011;51070;52.236;-0.892;2023-09-08T00:20:14;9.10;;;8.00;;
62927;SDS011;51070;52.236;-0.892;2023-09-08T00:22:40;9.90;;;8.30;;
62927;SDS011;51070;52.236;-0.892;2023-09-08T00:25:06;10.70;;;8.10;;
62927;SDS011;51070;52.236;-0.892;2023-09-08T00:27:32;9.90;;;8.10;;
62927;SDS011;51070;52.236;-0.892;2023-09-08T00:29:57;11.10;;;7.70;;
62927;SDS011;51070;52.236;-0.892;2023-09-08T00:32:23;8.70;;;7.80;;
62927;SDS011;51070;52.236;-0.892;2023-09-08T00:34:49;9.20;;;8.10;;
62927;SDS011;51070;52.236;-0.892;2023-09-08T00:37:14;10.20;;;8.10;;
62927;SDS011;51070;52.236;-0.892;2023-09-08T00:39:39;10.40;;;8.50;;
62927;SDS011;51070;52.236;-0.892;2023-09-08T00:42:06;10.90;;;7.80;;
62927;SDS011;51070;52.236;-0.892;2023-09-08T00:44:34;13.80;;;8.80;;
62927;SDS011;51070;52.236;-0.892;2023-09-08T00:46:59;9.20;;;8.20;;
62927;SDS011;51070;52.236;-0.892;2023-09-08T00:49:25;9.50;;;8.30;;
62927;SDS011;51070;52.236;-0.892;2023-09-08T00:51:50;10.10;;;8.40;;
62927;SDS011;51070;52.236;-0.892;2023-09-08T00:54:16;10.30;;;7.90;;
62927;SDS011;51070;52.236;-0.892;2023-09-08T00:56:43;11.80;;;8.40;;
62927;SDS011;51070;52.236;-0.892;2023-09-08T00:59:09;10.20;;;8.20;;
62927;SDS011;51070;52.236;-0.892;2023-09-08T01:01:35;9.10;;;8.10;;
62927;SDS011;51070;52.236;-0.892;2023-09-08T01:04:01;8.50;;;7.50;;
62927;SDS011;51070;52.236;-0.892;2023-09-08T01:06:27;8.20;;;7.20;;
62927;SDS011;51070;52.236;-0.892;2023-09-08T01:08:53;7.90;;;7.10;;
62927;SDS011;51070;52.236;-0.892;2023-09-08T01:11:20;8.40;;;7.20;;
62927;SDS011;51070;52.236;-0.892;2023-09-08T01:13:46;10.50;;;7.30;;
62927;SDS011;51070;52.236;-0.892;2023-09-08T01:16:12;8.60;;;7.10;;
62927;SDS011;51070;52.236;-0.892;2023-09-08T01:18:37;9.40;;;7.20;;
62927;SDS011;51070;52.236;-0.892;2023-09-08T01:23:49;8.20;;;7.30;;
62927;SDS011;51070;52.236;-0.892;2023-09-08T01:26:23;9.90;;;7.80;;
62927;SDS011;51070;52.236;-0.892;2023-09-08T01:29:00;9.60;;;7.90;;
62927;SDS011;51070;52.236;-0.892;2023-09-08T01:31:27;13.00;;;8.30;;
62927;SDS011;51070;52.236;-0.892;2023-09-08T01:33:53;8.10;;;7.30;;
62927;SDS011;51070;52.236;-0.892;2023-09-08T01:36:19;10.10;;;7.10;;
62927;SDS011;51070;52.236;-0.892;2023-09-08T01:38:44;10.70;;;7.10;;
62927;SDS011;51070;52.236;-0.892;2023-09-08T01:41:09;8.90;;;7.50;;
62927;SDS011;51070;52.236;-0.892;2023-09-08T01:43:35;11.50;;;7.80;;
62927;SDS011;51070;52.236;-0.892;2023-09-08T01:46:00;11.10;;;8.40;;
62927;SDS011;51070;52.236;-0.892;2023-09-08T01:48:25;12.30;;;9.40;;
62927;SDS011;51070;52.236;-0.892;2023-09-08T01:50:51;11.10;;;9.40;;
62927;SDS011;51070;52.236;-0.892;2023-09-08T01:53:16;13.10;;;9.70;;
62927;SDS011;51070;52.236;-0.892;2023-09-08T01:55:42;10.40;;;9.40;;
62927;SDS011;51070;52.236;-0.892;2023-09-08T01:58:07;12.60;;;9.90;;
62927;SDS011;51070;52.236;-0.892;2023-09-08T02:00:32;10.60;;;9.10;;
62927;SDS011;51070;52.236;-0.892;2023-09-08T02:02:57;11.20;;;9.40;;
62927;SDS011;51070;52.236;-0.892;2023-09-08T02:05:23;9.90;;;8.80;;
62927;SDS011;51070;52.236;-0.892;2023-09-08T02:07:50;12.50;;;9.60;;
62927;SDS011;51070;52.236;-0.892;2023-09-08T02:10:16;10.20;;;8.60;;
62927;SDS011;51070;52.236;-0.892;2023-09-08T02:12:41;11.50;;;8.50;;
62927;SDS011;51070;52.236;-0.892;2023-09-08T02:15:07;10.40;;;9.20;;
62927;SDS011;51070;52.236;-0.892;2023-09-08T02:17:34;10.30;;;8.60;;
62927;SDS011;51070;52.236;-0.892;2023-09-08T02:19:59;10.40;;;7.80;;
62927;SDS011;51070;52.236;-0.892;2023-09-08T02:22:24;8.90;;;8.00;;
62927;SDS011;51070;52.236;-0.892;2023-09-08T02:24:50;9.50;;;8.50;;
62927;SDS011;51070;52.236;-0.892;2023-09-08T02:27:17;9.80;;;8.40;;
62927;SDS011;51070;52.236;-0.892;2023-09-08T02:29:42;9.40;;;7.80;;
62927;SDS011;51070;52.236;-0.892;2023-09-08T02:32:07;10.70;;;8.70;;
62927;SDS011;51070;52.236;-0.892;2023-09-08T02:34:36;12.00;;;9.70;;
62927;SDS011;51070;52.236;-0.892;2023-09-08T02:37:02;12.40;;;8.50;;
62927;SDS011;51070;52.236;-0.892;2023-09-08T02:39:28;11.40;;;9.10;;
62927;SDS011;51070;52.236;-0.892;2023-09-08T02:41:53;10.40;;;8.90;;
62927;SDS011;51070;52.236;-0.892;2023-09-08T02:44:20;10.10;;;8.50;;
62927;SDS011;51070;52.236;-0.892;2023-09-08T02:46:47;13.40;;;9.70;;
62927;SDS011;51070;52.236;-0.892;2023-09-08T02:49:13;11.70;;;9.30;;
62927;SDS011;51070;52.236;-0.892;2023-09-08T02:51:38;13.20;;;9.90;;
62927;SDS011;51070;52.236;-0.892;2023-09-08T02:54:03;12.00;;;9.60;;
62927;SDS011;51070;52.236;-0.892;2023-09-08T02:56:29;13.20;;;8.80;;
62927;SDS011;51070;52.236;-0.892;2023-09-08T02:58:54;10.20;;;8.80;;
62927;SDS011;51070;52.236;-0.892;2023-09-08T03:01:19;12.70;;;8.10;;
62927;SDS011;51070;52.236;-0.892;2023-09-08T03:03:45;10.10;;;8.30;;
62927;SDS011;51070;52.236;-0.892;2023-09-08T03:06:13;9.10;;;7.80;;
62927;SDS011;51070;52.236;-0.892;2023-09-08T03:08:39;10.90;;;8.60;;
62927;SDS011;51070;52.236;-0.892;2023-09-08T03:11:05;9.10;;;8.00;;
62927;SDS011;51070;52.236;-0.892;2023-09-08T03:13:31;10.50;;;8.90;;
62927;SDS011;51070;52.236;-0.892;2023-09-08T03:16:05;14.00;;;10.10;;
62927;SDS011;51070;52.236;-0.892;2023-09-08T03:18:32;13.60;;;9.20;;
62927;SDS011;51070;52.236;-0.892;2023-09-08T03:20:59;11.40;;;10.20;;
62927;SDS011;51070;52.236;-0.892;2023-09-08T03:23:37;14.40;;;9.90;;
62927;SDS011;51070;52.236;-0.892;2023-09-08T03:26:03;11.80;;;10.20;;
62927;SDS011;51070;52.236;-0.892;2023-09-08T03:28:29;11.90;;;9.80;;
62927;SDS011;51070;52.236;-0.892;2023-09-08T03:30:55;15.80;;;10.20;;
62927;SDS011;51070;52.236;-0.892;2023-09-08T03:33:21;12.40;;;9.50;;
62927;SDS011;51070;52.236;-0.892;2023-09-08T03:35:46;12.40;;;10.30;;
62927;SDS011;51070;52.236;-0.892;2023-09-08T03:38:11;11.20;;;10.00;;
62927;SDS011;51070;52.236;-0.892;2023-09-08T03:40:37;11.30;;;10.10;;
62927;SDS011;51070;52.236;-0.892;2023-09-08T03:43:03;10.70;;;9.50;;
62927;SDS011;51070;52.236;-0.892;2023-09-08T03:45:29;13.20;;;11.30;;
62927;SDS011;51070;52.236;-0.892;2023-09-08T03:47:54;12.30;;;10.60;;
62927;SDS011;51070;52.236;-0.892;2023-09-08T03:50:19;12.50;;;10.90;;
62927;SDS011;51070;52.236;-0.892;2023-09-08T03:52:45;11.10;;;9.70;;
62927;SDS011;51070;52.236;-0.892;2023-09-08T03:55:10;13.70;;;10.90;;
62927;SDS011;51070;52.236;-0.892;2023-09-08T03:57:36;12.50;;;9.90;;
62927;SDS011;51070;52.236;-0.892;2023-09-08T04:00:02;13.80;;;10.30;;
62927;SDS011;51070;52.236;-0.892;2023-09-08T04:02:30;13.20;;;10.50;;
62927;SDS011;51070;52.236;-0.892;2023-09-08T04:04:55;17.20;;;10.10;;
62927;SDS011;51070;52.236;-0.892;2023-09-08T04:07:21;11.60;;;10.40;;
62927;SDS011;51070;52.236;-0.892;2023-09-08T04:09:46;14.00;;;9.30;;
62927;SDS011;51070;52.236;-0.892;2023-09-08T04:12:11;9.80;;;7.90;;
62927;SDS011;51070;52.236;-0.892;2023-09-08T04:14:37;9.00;;;7.80;;
62927;SDS011;51070;52.236;-0.892;2023-09-08T04:17:02;13.60;;;8.90;;
62927;SDS011;51070;52.236;-0.892;2023-09-08T04:19:28;10.20;;;9.20;;
62927;SDS011;51070;52.236;-0.892;2023-09-08T04:21:53;10.70;;;9.10;;
62927;SDS011;51070;52.236;-0.892;2023-09-08T04:24:19;10.00;;;9.00;;
62927;SDS011;51070;52.236;-0.892;2023-09-08T04:26:45;12.30;;;9.00;;
62927;SDS011;51070;52.236;-0.892;2023-09-08T04:29:10;11.30;;;10.00;;
62927;SDS011;51070;52.236;-0.892;2023-09-08T04:31:36;15.70;;;11.50;;
62927;SDS011;51070;52.236;-0.892;2023-09-08T04:34:01;14.10;;;11.50;;
62927;SDS011;51070;52.236;-0.892;2023-09-08T04:36:26;12.90;;;10.10;;
62927;SDS011;51070;52.236;-0.892;2023-09-08T04:38:52;10.20;;;8.80;;
62927;SDS011;51070;52.236;-0.892;2023-09-08T04:41:17;10.30;;;9.10;;
62927;SDS011;51070;52.236;-0.892;2023-09-08T04:43:42;11.60;;;9.90;;
62927;SDS011;51070;52.236;-0.892;2023-09-08T04:46:08;13.60;;;11.30;;
62927;SDS011;51070;52.236;-0.892;2023-09-08T04:48:33;13.90;;;12.40;;
62927;SDS011;51070;52.236;-0.892;2023-09-08T04:50:59;14.70;;;11.40;;
62927;SDS011;51070;52.236;-0.892;2023-09-08T04:53:24;13.90;;;12.20;;
62927;SDS011;51070;52.236;-0.892;2023-09-08T04:55:49;16.70;;;12.00;;
62927;SDS011;51070;52.236;-0.892;2023-09-08T04:58:15;14.60;;;11.80;;
62927;SDS011;51070;52.236;-0.892;2023-09-08T05:00:40;15.10;;;12.70;;
62927;SDS011;51070;52.236;-0.892;2023-09-08T05:03:06;14.30;;;12.50;;
62927;SDS011;51070;52.236;-0.892;2023-09-08T05:05:31;17.40;;;11.70;;
62927;SDS011;51070;52.236;-0.892;2023-09-08T05:07:57;14.10;;;11.60;;
62927;SDS011;51070;52.236;-0.892;2023-09-08T05:10:22;13.70;;;12.20;;
62927;SDS011;51070;52.236;-0.892;2023-09-08T05:12:48;13.40;;;12.00;;
62927;SDS011;51070;52.236;-0.892;2023-09-08T05:15:14;14.70;;;11.50;;
62927;SDS011;51070;52.236;-0.892;2023-09-08T05:17:41;13.60;;;12.20;;
62927;SDS011;51070;52.236;-0.892;2023-09-08T05:20:08;12.10;;;10.50;;
62927;SDS011;51070;52.236;-0.892;2023-09-08T05:22:34;13.50;;;11.20;;
62927;SDS011;51070;52.236;-0.892;2023-09-08T05:24:59;15.10;;;11.50;;
62927;SDS011;51070;52.236;-0.892;2023-09-08T05:27:24;14.20;;;11.90;;
62927;SDS011;51070;52.236;-0.892;2023-09-08T05:29:50;13.10;;;11.70;;
62927;SDS011;51070;52.236;-0.892;2023-09-08T05:32:15;13.10;;;11.20;;
62927;SDS011;51070;52.236;-0.892;2023-09-08T05:34:40;13.50;;;12.00;;
62927;SDS011;51070;52.236;-0.892;2023-09-08T05:37:06;13.30;;;11.90;;
62927;SDS011;51070;52.236;-0.892;2023-09-08T05:39:31;14.20;;;11.70;;
62927;SDS011;51070;52.236;-0.892;2023-09-08T05:41:57;12.90;;;11.40;;
62927;SDS011;51070;52.236;-0.892;2023-09-08T05:44:22;14.40;;;11.40;;
62927;SDS011;51070;52.236;-0.892;2023-09-08T05:46:47;15.20;;;11.80;;
62927;SDS011;51070;52.236;-0.892;2023-09-08T05:49:13;14.80;;;12.10;;
62927;SDS011;51070;52.236;-0.892;2023-09-08T05:51:39;15.30;;;12.50;;
62927;SDS011;51070;52.236;-0.892;2023-09-08T05:54:05;14.80;;;12.30;;
62927;SDS011;51070;52.236;-0.892;2023-09-08T05:56:30;15.60;;;12.10;;
62927;SDS011;51070;52.236;-0.892;2023-09-08T05:58:57;17.30;;;12.50;;
62927;SDS011;51070;52.236;-0.892;2023-09-08T06:01:23;15.00;;;12.70;;
62927;SDS011;51070;52.236;-0.892;2023-09-08T06:03:49;16.70;;;13.00;;
62927;SDS011;51070;52.236;-0.892;2023-09-08T06:06:15;14.20;;;10.00;;
62927;SDS011;51070;52.236;-0.892;2023-09-08T06:08:40;14.80;;;11.40;;
62927;SDS011;51070;52.236;-0.892;2023-09-08T06:11:05;15.50;;;12.00;;
62927;SDS011;51070;52.236;-0.892;2023-09-08T06:13:31;13.40;;;11.40;;
62927;SDS011;51070;52.236;-0.892;2023-09-08T06:15:56;15.80;;;11.50;;
62927;SDS011;51070;52.236;-0.892;2023-09-08T06:18:22;13.10;;;10.60;;
62927;SDS011;51070;52.236;-0.892;2023-09-08T06:20:47;14.10;;;10.70;;
62927;SDS011;51070;52.236;-0.892;2023-09-08T06:23:13;14.30;;;10.20;;
62927;SDS011;51070;52.236;-0.892;2023-09-08T06:25:40;13.20;;;10.70;;
62927;SDS011;51070;52.236;-0.892;2023-09-08T06:28:06;14.80;;;11.10;;
62927;SDS011;51070;52.236;-0.892;2023-09-08T06:30:31;11.20;;;10.00;;
62927;SDS011;51070;52.236;-0.892;2023-09-08T06:32:56;14.90;;;11.40;;
62927;SDS011;51070;52.236;-0.892;2023-09-08T06:35:22;14.00;;;11.40;;
62927;SDS011;51070;52.236;-0.892;2023-09-08T06:37:47;13.00;;;11.60;;
62927;SDS011;51070;52.236;-0.892;2023-09-08T06:40:12;13.10;;;11.70;;
62927;SDS011;51070;52.236;-0.892;2023-09-08T06:42:38;18.70;;;12.00;;
62927;SDS011;51070;52.236;-0.892;2023-09-08T06:45:03;16.20;;;11.10;;
62927;SDS011;51070;52.236;-0.892;2023-09-08T06:47:29;15.70;;;12.10;;
62927;SDS011;51070;52.236;-0.892;2023-09-08T06:49:58;17.80;;;12.20;;
62927;SDS011;51070;52.236;-0.892;2023-09-08T06:52:23;19.30;;;13.50;;
62927;SDS011;51070;52.236;-0.892;2023-09-08T06:54:49;17.90;;;12.90;;
62927;SDS011;51070;52.236;-0.892;2023-09-08T06:57:17;17.60;;;13.00;;
62927;SDS011;51070;52.236;-0.892;2023-09-08T06:59:45;19.90;;;13.20;;
62927;SDS011;51070;52.236;-0.892;2023-09-08T07:02:11;19.60;;;12.60;;
62927;SDS011;51070;52.236;-0.892;2023-09-08T07:04:36;22.50;;;13.00;;
62927;SDS011;51070;52.236;-0.892;2023-09-08T07:07:02;24.10;;;13.00;;
62927;SDS011;51070;52.236;-0.892;2023-09-08T07:09:32;21.40;;;12.80;;
62927;SDS011;51070;52.236;-0.892;2023-09-08T07:11:59;21.10;;;12.80;;
62927;SDS011;51070;52.236;-0.892;2023-09-08T07:14:24;19.30;;;12.50;;
62927;SDS011;51070;52.236;-0.892;2023-09-08T07:16:50;16.20;;;11.80;;
62927;SDS011;51070;52.236;-0.892;2023-09-08T07:19:15;15.90;;;12.40;;
62927;SDS011;51070;52.236;-0.892;2023-09-08T07:21:40;17.60;;;12.50;;
62927;SDS011;51070;52.236;-0.892;2023-09-08T07:24:06;14.00;;;11.60;;
62927;SDS011;51070;52.236;-0.892;2023-09-08T07:26:32;12.20;;;10.40;;
62927;SDS011;51070;52.236;-0.892;2023-09-08T07:28:58;20.40;;;11.70;;
62927;SDS011;51070;52.236;-0.892;2023-09-08T07:31:23;17.60;;;12.70;;
62927;SDS011;51070;52.236;-0.892;2023-09-08T07:33:48;16.10;;;12.20;;
62927;SDS011;51070;52.236;-0.892;2023-09-08T07:36:15;21.90;;;16.20;;
62927;SDS011;51070;52.236;-0.892;2023-09-08T07:38:40;22.80;;;14.70;;
62927;SDS011;51070;52.236;-0.892;2023-09-08T07:41:06;19.60;;;14.40;;
62927;SDS011;51070;52.236;-0.892;2023-09-08T07:43:31;17.50;;;14.60;;
62927;SDS011;51070;52.236;-0.892;2023-09-08T07:45:56;16.50;;;14.20;;
62927;SDS011;51070;52.236;-0.892;2023-09-08T07:48:22;19.60;;;15.50;;
62927;SDS011;51070;52.236;-0.892;2023-09-08T07:50:47;19.70;;;15.20;;
62927;SDS011;51070;52.236;-0.892;2023-09-08T07:53:13;21.40;;;15.40;;
62927;SDS011;51070;52.236;-0.892;2023-09-08T07:55:38;19.40;;;16.10;;
62927;SDS011;51070;52.236;-0.892;2023-09-08T07:58:03;18.50;;;15.50;;
62927;SDS011;51070;52.236;-0.892;2023-09-08T08:00:29;19.80;;;15.50;;
62927;SDS011;51070;52.236;-0.892;2023-09-08T08:02:56;19.10;;;14.90;;
62927;SDS011;51070;52.236;-0.892;2023-09-08T08:05:22;18.00;;;16.00;;
62927;SDS011;51070;52.236;-0.892;2023-09-08T08:07:48;20.70;;;15.50;;
62927;SDS011;51070;52.236;-0.892;2023-09-08T08:10:14;18.30;;;15.60;;
62927;SDS011;51070;52.236;-0.892;2023-09-08T08:12:39;20.20;;;15.10;;
62927;SDS011;51070;52.236;-0.892;2023-09-08T08:15:06;16.80;;;15.00;;
62927;SDS011;51070;52.236;-0.892;2023-09-08T08:17:35;20.40;;;14.60;;
62927;SDS011;51070;52.236;-0.892;2023-09-08T08:20:01;18.70;;;14.40;;
62927;SDS011;51070;52.236;-0.892;2023-09-08T08:22:37;16.80;;;14.80;;
62927;SDS011;51070;52.236;-0.892;2023-09-08T08:25:03;19.90;;;15.80;;
62927;SDS011;51070;52.236;-0.892;2023-09-08T08:27:30;19.50;;;14.40;;
62927;SDS011;51070;52.236;-0.892;2023-09-08T08:29:58;17.70;;;15.50;;
62927;SDS011;51070;52.236;-0.892;2023-09-08T08:32:26;17.80;;;14.00;;
62927;SDS011;51070;52.236;-0.892;2023-09-08T08:34:51;18.00;;;15.30;;
62927;SDS011;51070;52.236;-0.892;2023-09-08T08:37:17;19.70;;;16.20;;
62927;SDS011;51070;52.236;-0.892;2023-09-08T08:39:43;18.60;;;15.80;;
62927;SDS011;51070;52.236;-0.892;2023-09-08T08:42:09;18.10;;;14.80;;
62927;SDS011;51070;52.236;-0.892;2023-09-08T08:44:35;18.50;;;15.60;;
62927;SDS011;51070;52.236;-0.892;2023-09-08T08:47:03;19.50;;;16.60;;
62927;SDS011;51070;52.236;-0.892;2023-09-08T08:49:32;20.00;;;16.50;;
62927;SDS011;51070;52.236;-0.892;2023-09-08T08:51:58;17.50;;;15.80;;
62927;SDS011;51070;52.236;-0.892;2023-09-08T08:54:25;17.40;;;15.20;;
62927;SDS011;51070;52.236;-0.892;2023-09-08T08:56:51;16.50;;;14.80;;
62927;SDS011;51070;52.236;-0.892;2023-09-08T08:59:16;18.50;;;15.30;;
62927;SDS011;51070;52.236;-0.892;2023-09-08T09:01:43;17.50;;;15.70;;
62927;SDS011;51070;52.236;-0.892;2023-09-08T09:04:09;16.90;;;15.10;;
62927;SDS011;51070;52.236;-0.892;2023-09-08T09:06:35;18.50;;;15.20;;
62927;SDS011;51070;52.236;-0.892;2023-09-08T09:09:01;19.00;;;14.60;;
62927;SDS011;51070;52.236;-0.892;2023-09-08T09:13:56;21.10;;;16.10;;
62927;SDS011;51070;52.236;-0.892;2023-09-08T09:16:21;17.70;;;14.50;;
62927;SDS011;51070;52.236;-0.892;2023-09-08T09:18:56;23.00;;;15.00;;
62927;SDS011;51070;52.236;-0.892;2023-09-08T09:21:24;19.20;;;14.90;;
62927;SDS011;51070;52.236;-0.892;2023-09-08T09:24:05;19.90;;;14.90;;
62927;SDS011;51070;52.236;-0.892;2023-09-08T09:26:31;23.30;;;15.10;;
62927;SDS011;51070;52.236;-0.892;2023-09-08T09:28:57;17.50;;;13.50;;
62927;SDS011;51070;52.236;-0.892;2023-09-08T09:31:24;20.20;;;15.70;;
62927;SDS011;51070;52.236;-0.892;2023-09-08T09:34:02;18.50;;;14.90;;
62927;SDS011;51070;52.236;-0.892;2023-09-08T09:36:30;17.60;;;14.20;;
62927;SDS011;51070;52.236;-0.892;2023-09-08T09:38:59;17.50;;;14.40;;
62927;SDS011;51070;52.236;-0.892;2023-09-08T09:41:27;16.90;;;13.60;;
62927;SDS011;51070;52.236;-0.892;2023-09-08T09:43:54;18.00;;;14.80;;
62927;SDS011;51070;52.236;-0.892;2023-09-08T09:46:21;16.50;;;13.90;;
62927;SDS011;51070;52.236;-0.892;2023-09-08T09:48:50;16.60;;;14.50;;
62927;SDS011;51070;52.236;-0.892;2023-09-08T09:51:18;15.60;;;14.00;;
62927;SDS011;51070;52.236;-0.892;2023-09-08T09:53:44;19.20;;;14.50;;
62927;SDS011;51070;52.236;-0.892;2023-09-08T09:56:11;18.20;;;13.60;;
62927;SDS011;51070;52.236;-0.892;2023-09-08T09:58:37;15.10;;;13.50;;
62927;SDS011;51070;52.236;-0.892;2023-09-08T10:01:03;16.10;;;14.30;;
62927;SDS011;51070;52.236;-0.892;2023-09-08T10:03:30;16.40;;;14.40;;
62927;SDS011;51070;52.236;-0.892;2023-09-08T10:05:57;18.10;;;14.10;;
62927;SDS011;51070;52.236;-0.892;2023-09-08T10:08:24;16.90;;;14.80;;
62927;SDS011;51070;52.236;-0.892;2023-09-08T10:10:50;18.80;;;12.90;;
62927;SDS011;51070;52.236;-0.892;2023-09-08T10:13:23;14.30;;;12.90;;
62927;SDS011;51070;52.236;-0.892;2023-09-08T10:15:57;16.00;;;14.20;;
62927;SDS011;51070;52.236;-0.892;2023-09-08T10:18:23;16.40;;;14.00;;
62927;SDS011;51070;52.236;-0.892;2023-09-08T10:20:51;16.90;;;13.20;;
62927;SDS011;51070;52.236;-0.892;2023-09-08T10:23:31;15.80;;;12.70;;
62927;SDS011;51070;52.236;-0.892;2023-09-08T10:26:03;13.80;;;12.40;;
62927;SDS011;51070;52.236;-0.892;2023-09-08T10:28:32;13.10;;;11.00;;
62927;SDS011;51070;52.236;-0.892;2023-09-08T10:30:58;14.40;;;12.40;;
62927;SDS011;51070;52.236;-0.892;2023-09-08T10:33:25;14.70;;;12.60;;
62927;SDS011;51070;52.236;-0.892;2023-09-08T10:35:51;14.90;;;11.70;;
62927;SDS011;51070;52.236;-0.892;2023-09-08T10:38:22;15.30;;;11.90;;
62927;SDS011;51070;52.236;-0.892;2023-09-08T10:43:45;14.70;;;11.50;;
62927;SDS011;51070;52.236;-0.892;2023-09-08T10:46:22;12.90;;;9.90;;
62927;SDS011;51070;52.236;-0.892;2023-09-08T10:48:49;11.90;;;10.60;;
62927;SDS011;51070;52.236;-0.892;2023-09-08T10:51:14;12.60;;;10.50;;
62927;SDS011;51070;52.236;-0.892;2023-09-08T10:53:42;12.20;;;10.10;;
62927;SDS011;51070;52.236;-0.892;2023-09-08T10:56:08;10.80;;;9.70;;
62927;SDS011;51070;52.236;-0.892;2023-09-08T10:58:34;10.60;;;9.60;;
62927;SDS011;51070;52.236;-0.892;2023-09-08T11:01:04;11.40;;;10.30;;
62927;SDS011;51070;52.236;-0.892;2023-09-08T11:06:07;10.50;;;9.50;;
62927;SDS011;51070;52.236;-0.892;2023-09-08T11:08:33;14.70;;;10.70;;
62927;SDS011;51070;52.236;-0.892;2023-09-08T11:11:01;12.70;;;10.90;;
62927;SDS011;51070;52.236;-0.892;2023-09-08T11:13:28;18.90;;;10.40;;
62927;SDS011;51070;52.236;-0.892;2023-09-08T11:15:53;11.60;;;10.10;;
62927;SDS011;51070;52.236;-0.892;2023-09-08T11:18:26;13.80;;;9.20;;
62927;SDS011;51070;52.236;-0.892;2023-09-08T11:20:52;12.80;;;10.30;;
62927;SDS011;51070;52.236;-0.892;2023-09-08T11:23:18;14.20;;;8.60;;
62927;SDS011;51070;52.236;-0.892;2023-09-08T11:25:44;11.70;;;8.30;;
62927;SDS011;51070;52.236;-0.892;2023-09-08T11:28:09;12.70;;;8.70;;
62927;SDS011;51070;52.236;-0.892;2023-09-08T11:30:35;15.20;;;9.20;;
62927;SDS011;51070;52.236;-0.892;2023-09-08T11:33:01;13.20;;;8.80;;
62927;SDS011;51070;52.236;-0.892;2023-09-08T11:35:27;9.80;;;8.80;;
62927;SDS011;51070;52.236;-0.892;2023-09-08T11:37:58;11.20;;;7.60;;
62927;SDS011;51070;52.236;-0.892;2023-09-08T11:40:25;12.20;;;8.10;;
62927;SDS011;51070;52.236;-0.892;2023-09-08T11:42:53;11.90;;;9.10;;
62927;SDS011;51070;52.236;-0.892;2023-09-08T11:45:18;13.00;;;8.00;;
62927;SDS011;51070;52.236;-0.892;2023-09-08T11:47:46;10.10;;;9.10;;
62927;SDS011;51070;52.236;-0.892;2023-09-08T11:50:14;9.90;;;7.70;;
62927;SDS011;51070;52.236;-0.892;2023-09-08T11:52:45;12.10;;;8.70;;
62927;SDS011;51070;52.236;-0.892;2023-09-08T11:55:12;13.60;;;7.70;;
62927;SDS011;51070;52.236;-0.892;2023-09-08T11:57:39;12.40;;;7.60;;
62927;SDS011;51070;52.236;-0.892;2023-09-08T12:00:06;10.20;;;7.30;;
62927;SDS011;51070;52.236;-0.892;2023-09-08T12:02:36;12.10;;;7.80;;
62927;SDS011;51070;52.236;-0.892;2023-09-08T12:05:02;11.70;;;7.20;;
62927;SDS011;51070;52.236;-0.892;2023-09-08T12:07:37;10.80;;;6.40;;
62927;SDS011;51070;52.236;-0.892;2023-09-08T12:10:07;11.60;;;6.70;;
62927;SDS011;51070;52.236;-0.892;2023-09-08T12:12:41;8.30;;;6.40;;
62927;SDS011;51070;52.236;-0.892;2023-09-08T12:15:08;8.80;;;6.90;;
62927;SDS011;51070;52.236;-0.892;2023-09-08T12:17:45;10.00;;;6.40;;
62927;SDS011;51070;52.236;-0.892;2023-09-08T12:20:13;10.80;;;7.50;;
62927;SDS011;51070;52.236;-0.892;2023-09-08T12:22:46;8.70;;;7.50;;
62927;SDS011;51070;52.236;-0.892;2023-09-08T12:25:13;8.10;;;6.30;;
62927;SDS011;51070;52.236;-0.892;2023-09-08T12:27:39;9.30;;;6.50;;
62927;SDS011;51070;52.236;-0.892;2023-09-08T12:30:05;7.90;;;5.90;;
62927;SDS011;51070;52.236;-0.892;2023-09-08T12:32:33;8.50;;;6.40;;
62927;SDS011;51070;52.236;-0.892;2023-09-08T12:34:58;8.90;;;5.80;;
62927;SDS011;51070;52.236;-0.892;2023-09-08T12:37:28;7.00;;;6.00;;
62927;SDS011;51070;52.236;-0.892;2023-09-08T12:39:55;8.00;;;5.70;;
62927;SDS011;51070;52.236;-0.892;2023-09-08T12:42:21;8.20;;;5.60;;
62927;SDS011;51070;52.236;-0.892;2023-09-08T12:44:50;6.90;;;6.20;;
62927;SDS011;51070;52.236;-0.892;2023-09-08T12:47:16;7.60;;;5.90;;
62927;SDS011;51070;52.236;-0.892;2023-09-08T12:49:42;8.00;;;5.40;;
62927;SDS011;51070;52.236;-0.892;2023-09-08T12:52:07;10.90;;;6.30;;
62927;SDS011;51070;52.236;-0.892;2023-09-08T12:54:34;9.20;;;6.10;;
62927;SDS011;51070;52.236;-0.892;2023-09-08T12:57:00;6.80;;;5.80;;
62927;SDS011;51070;52.236;-0.892;2023-09-08T12:59:26;7.10;;;5.70;;
62927;SDS011;51070;52.236;-0.892;2023-09-08T13:01:52;8.60;;;5.50;;
62927;SDS011;51070;52.236;-0.892;2023-09-08T13:04:18;10.20;;;6.90;;
62927;SDS011;51070;52.236;-0.892;2023-09-08T13:06:44;9.40;;;5.60;;
62927;SDS011;51070;52.236;-0.892;2023-09-08T13:09:10;6.90;;;5.60;;
62927;SDS011;51070;52.236;-0.892;2023-09-08T13:11:36;8.20;;;5.70;;
62927;SDS011;51070;52.236;-0.892;2023-09-08T13:14:02;7.70;;;5.50;;
62927;SDS011;51070;52.236;-0.892;2023-09-08T13:16:28;10.20;;;4.90;;
62927;SDS011;51070;52.236;-0.892;2023-09-08T13:18:54;9.20;;;5.50;;
62927;SDS011;51070;52.236;-0.892;2023-09-08T13:21:20;7.40;;;5.20;;
62927;SDS011;51070;52.236;-0.892;2023-09-08T13:23:45;6.70;;;5.40;;
62927;SDS011;51070;52.236;-0.892;2023-09-08T13:26:11;7.40;;;5.10;;
62927;SDS011;51070;52.236;-0.892;2023-09-08T13:28:36;8.10;;;5.10;;
62927;SDS011;51070;52.236;-0.892;2023-09-08T13:31:02;7.70;;;5.40;;
62927;SDS011;51070;52.236;-0.892;2023-09-08T13:33:28;6.40;;;5.60;;
62927;SDS011;51070;52.236;-0.892;2023-09-08T13:35:53;5.90;;;5.10;;
62927;SDS011;51070;52.236;-0.892;2023-09-08T13:38:19;6.10;;;5.40;;
62927;SDS011;51070;52.236;-0.892;2023-09-08T13:40:45;6.10;;;5.10;;
62927;SDS011;51070;52.236;-0.892;2023-09-08T13:43:10;6.40;;;4.90;;
62927;SDS011;51070;52.236;-0.892;2023-09-08T13:45:36;9.60;;;5.40;;
62927;SDS011;51070;52.236;-0.892;2023-09-08T13:48:02;7.70;;;5.90;;
62927;SDS011;51070;52.236;-0.892;2023-09-08T13:50:31;7.30;;;5.10;;
62927;SDS011;51070;52.236;-0.892;2023-09-08T13:52:57;10.10;;;5.60;;
62927;SDS011;51070;52.236;-0.892;2023-09-08T13:55:22;8.60;;;5.80;;
62927;SDS011;51070;52.236;-0.892;2023-09-08T13:57:49;7.40;;;6.30;;
62927;SDS011;51070;52.236;-0.892;2023-09-08T14:00:16;7.20;;;6.50;;
62927;SDS011;51070;52.236;-0.892;2023-09-08T14:02:42;7.30;;;5.80;;
62927;SDS011;51070;52.236;-0.892;2023-09-08T14:05:08;6.70;;;5.90;;
62927;SDS011;51070;52.236;-0.892;2023-09-08T14:07:33;6.20;;;5.20;;
62927;SDS011;51070;52.236;-0.892;2023-09-08T14:09:59;6.70;;;5.70;;
62927;SDS011;51070;52.236;-0.892;2023-09-08T14:12:26;6.10;;;4.50;;
62927;SDS011;51070;52.236;-0.892;2023-09-08T14:14:51;8.00;;;5.10;;
62927;SDS011;51070;52.236;-0.892;2023-09-08T14:17:17;9.80;;;5.10;;
62927;SDS011;51070;52.236;-0.892;2023-09-08T14:19:42;6.80;;;5.60;;
62927;SDS011;51070;52.236;-0.892;2023-09-08T14:22:08;6.70;;;4.80;;
62927;SDS011;51070;52.236;-0.892;2023-09-08T14:24:33;6.00;;;5.30;;